Time;durP1;ratioP1;P1;durP2;ratioP2;P2;SDS_P1;SDS_P2;PMS_P1;PMS_P2;Temp;Humidity;BMP_temperature;BMP_pressure;BME280_temperature;BME280_humidity;BME280_pressure;Samples;Min_cycle;Max_cycle;Signal;HPM_P1;HPM_P2
2024/02/17 00:00:08;;;;;;;10.85;7.10;;;;;;;14.35;58.51;95638.41;6186889;23;20099;-87
2024/02/17 00:02:34;;;;;;;9.63;6.53;;;;;;;14.34;58.95;95642.03;6162564;23;20020;-86
2024/02/17 00:07:25;;;;;;;8.88;6.93;;;;;;;14.30;58.99;95639.97;6210641;23;20029;-87
2024/02/17 00:09:55;;;;;;;8.52;6.43;;;;;;;14.35;58.71;95633.16;6237360;23;20008;-86
2024/02/17 00:12:20;;;;;;;9.35;6.63;;;;;;;14.26;58.96;95644.81;6180860;23;20016;-86
2024/02/17 00:14:47;;;;;;;9.30;6.60;;;;;;;14.42;58.73;95643.69;6188056;23;20004;-86
2024/02/17 00:24:48;;;;;;;10.43;6.57;;;;;;;14.43;58.83;95643.50;6238331;23;20032;-86
2024/02/17 00:27:14;;;;;;;10.45;6.93;;;;;;;14.38;58.76;95650.31;6213344;23;20000;-86
2024/02/17 00:29:40;;;;;;;13.13;6.80;;;;;;;14.18;59.41;95652.78;6188230;23;20016;-85
2024/02/17 00:32:06;;;;;;;11.93;7.22;;;;;;;14.18;59.46;95645.72;6213468;23;20004;-87
2024/02/17 00:34:32;;;;;;;10.57;6.90;;;;;;;14.23;59.60;95661.66;6187952;23;20009;-86
2024/02/17 00:36:57;;;;;;;10.65;7.30;;;;;;;14.36;59.32;95666.19;6188109;23;20011;-87
2024/02/17 00:39:23;;;;;;;12.02;6.85;;;;;;;14.31;59.23;95655.50;6188141;23;20008;-88
2024/02/17 00:41:51;;;;;;;13.57;7.72;;;;;;;14.26;59.73;95658.69;6213130;23;20054;-86
2024/02/17 00:44:17;;;;;;;9.93;7.10;;;;;;;14.21;59.78;95662.88;6212660;23;20100;-86
2024/02/17 00:46:42;;;;;;;11.77;7.70;;;;;;;14.19;59.88;95662.25;6188446;23;20001;-87
2024/02/17 00:49:10;;;;;;;9.88;7.00;;;;;;;14.23;60.02;95676.56;6163317;23;20012;-86
2024/02/17 00:51:36;;;;;;;10.50;7.25;;;;;;;14.23;60.17;95673.94;6163615;23;20016;-87
2024/02/17 00:54:04;;;;;;;11.63;7.18;;;;;;;14.16;60.54;95676.50;6213726;23;20043;-86
2024/02/17 00:56:29;;;;;;;10.57;7.75;;;;;;;14.19;60.41;95678.75;6163274;23;20008;-86
2024/02/17 00:58:55;;;;;;;8.95;7.30;;;;;;;14.03;60.89;95676.38;6162795;23;20019;-86
2024/02/17 01:03:56;;;;;;;11.13;7.72;;;;;;;14.16;60.43;95680.94;6216975;23;20070;-86
2024/02/17 01:06:21;;;;;;;10.65;6.75;;;;;;;14.23;59.88;95674.75;6193183;23;20012;-86
2024/02/17 01:08:47;;;;;;;10.30;7.53;;;;;;;14.17;60.31;95674.72;6168207;23;20065;-86
2024/02/17 01:11:13;;;;;;;10.70;8.00;;;;;;;14.07;60.95;95681.06;6217873;23;20011;-86
2024/02/17 01:13:40;;;;;;;11.75;8.00;;;;;;;14.15;60.31;95672.28;6243224;23;20015;-87
2024/02/17 01:16:07;;;;;;;15.15;8.70;;;;;;;14.24;60.14;95681.63;6194013;23;20087;-87
2024/02/17 01:20:57;;;;;;;10.65;7.97;;;;;;;14.24;59.90;95679.00;6236659;22;20103;-87
2024/02/17 01:23:23;;;;;;;13.02;7.65;;;;;;;14.30;59.84;95689.69;6218159;23;20070;-86
2024/02/17 01:25:49;;;;;;;11.73;8.20;;;;;;;14.34;60.08;95694.38;6218242;23;20023;-87
2024/02/17 01:35:50;;;;;;;11.32;8.10;;;;;;;14.23;60.78;95700.91;6241844;22;20089;-86
2024/02/17 01:38:15;;;;;;;10.45;8.25;;;;;;;14.31;60.63;95699.16;6192920;23;20004;-87
2024/02/17 01:40:43;;;;;;;15.13;9.02;;;;;;;14.26;61.09;95697.13;6217815;23;20015;-88
2024/02/17 01:43:08;;;;;;;13.63;8.88;;;;;;;14.23;61.13;95694.88;6193122;23;20012;-86
2024/02/17 01:45:34;;;;;;;13.52;9.57;;;;;;;14.22;61.28;95690.63;6188055;23;20057;-87
2024/02/17 01:48:00;;;;;;;14.23;10.27;;;;;;;14.18;61.74;95702.47;6192749;23;20035;-88
2024/02/17 01:50:26;;;;;;;12.55;9.80;;;;;;;14.06;61.98;95695.13;6217786;23;20008;-87
2024/02/17 01:55:19;;;;;;;14.32;10.10;;;;;;;13.98;62.75;95704.91;6192834;23;20028;-88
2024/02/17 01:57:46;;;;;;;11.57;9.80;;;;;;;14.15;62.24;95708.91;6162260;23;20004;-86
2024/02/17 02:00:13;;;;;;;14.13;10.15;;;;;;;13.99;62.70;95712.59;6187692;23;20079;-86
2024/02/17 02:02:45;;;;;;;14.32;10.65;;;;;;;14.11;62.20;95710.28;6188470;23;20017;-88
2024/02/17 02:07:36;;;;;;;14.35;9.88;;;;;;;14.06;62.27;95713.44;6226201;22;20047;-87
2024/02/17 02:10:06;;;;;;;16.08;10.27;;;;;;;13.99;62.14;95704.75;6192741;23;20015;-87
2024/02/17 02:12:32;;;;;;;12.90;9.52;;;;;;;14.03;62.02;95705.16;6217262;23;20008;-87
2024/02/17 02:15:08;;;;;;;13.15;9.38;;;;;;;13.99;62.38;95712.59;6217662;23;20000;-86
2024/02/17 02:17:34;;;;;;;11.25;8.73;;;;;;;14.07;62.23;95715.06;6192686;23;20012;-87
2024/02/17 02:19:59;;;;;;;13.20;8.88;;;;;;;14.14;61.85;95709.09;6191963;23;20008;-88
2024/02/17 02:22:29;;;;;;;13.10;9.45;;;;;;;14.10;62.06;95716.50;6192332;23;20008;-87
2024/02/17 02:24:57;;;;;;;12.40;9.00;;;;;;;14.26;61.33;95715.44;6217582;23;20083;-87
2024/02/17 02:27:24;;;;;;;13.82;8.80;;;;;;;14.12;61.99;95713.69;6217763;23;19996;-87
2024/02/17 02:29:49;;;;;;;13.80;8.20;;;;;;;14.31;61.32;95715.66;6192478;23;20041;-87
2024/02/17 02:32:18;;;;;;;13.32;8.18;;;;;;;14.36;61.02;95717.75;6191948;23;20038;-87
2024/02/17 02:34:47;;;;;;;9.73;7.15;;;;;;;14.41;60.72;95720.56;6193314;23;20012;-87
2024/02/17 02:37:13;;;;;;;10.77;7.10;;;;;;;14.34;60.73;95712.69;6196439;23;20027;-87
2024/02/17 02:44:39;;;;;;;10.02;7.03;;;;;;;14.29;61.02;95715.06;6214259;23;20016;-87
2024/02/17 02:47:10;;;;;;;12.38;7.47;;;;;;;14.35;60.94;95719.53;6162287;23;20009;-87
2024/02/17 02:49:35;;;;;;;9.40;7.43;;;;;;;14.31;61.01;95726.13;6187134;23;20008;-87
2024/02/17 02:52:01;;;;;;;12.05;7.50;;;;;;;14.28;60.79;95716.06;6137574;23;20035;-87
2024/02/17 02:54:26;;;;;;;11.00;6.97;;;;;;;14.28;60.74;95719.47;6137611;23;20016;-88
2024/02/17 02:56:54;;;;;;;10.60;7.43;;;;;;;14.40;60.69;95732.06;6162590;23;20019;-87
2024/02/17 02:59:20;;;;;;;12.48;8.18;;;;;;;14.43;60.66;95727.25;6162858;23;20017;-87
2024/02/17 03:01:46;;;;;;;10.82;6.93;;;;;;;14.48;60.50;95730.09;6137877;23;20034;-86
2024/02/17 03:04:11;;;;;;;11.70;8.43;;;;;;;14.51;60.58;95739.41;6137886;23;20019;-88
2024/02/17 03:06:38;;;;;;;10.38;7.70;;;;;;;14.45;60.84;95740.16;6162797;23;20091;-87
2024/02/17 03:09:06;;;;;;;11.32;7.78;;;;;;;14.55;60.23;95739.84;6138158;23;20027;-88
2024/02/17 03:11:32;;;;;;;11.13;7.80;;;;;;;14.52;60.22;95732.34;6187309;23;20082;-87
2024/02/17 03:13:58;;;;;;;11.60;6.90;;;;;;;14.42;60.38;95736.09;6162240;23;20012;-87
2024/02/17 03:16:25;;;;;;;10.70;7.95;;;;;;;14.44;60.47;95739.34;6186885;23;20016;-87
2024/02/17 03:18:53;;;;;;;9.13;7.30;;;;;;;14.34;60.69;95731.00;6161745;23;20063;-87
2024/02/17 03:21:19;;;;;;;12.73;8.05;;;;;;;14.31;60.80;95734.00;6186923;23;20013;-87
2024/02/17 03:28:48;;;;;;;12.00;8.05;;;;;;;14.32;60.46;95748.69;6202632;23;20028;-86
2024/02/17 03:31:13;;;;;;;10.98;7.90;;;;;;;14.39;60.40;95757.44;6191218;23;20020;-87
2024/02/17 03:33:39;;;;;;;11.20;7.55;;;;;;;14.29;60.88;95749.06;6191987;23;20015;-86
2024/02/17 03:36:05;;;;;;;11.65;7.90;;;;;;;14.38;61.07;95763.66;6192439;23;20008;-86
2024/02/17 03:38:33;;;;;;;13.05;8.32;;;;;;;14.41;60.62;95762.44;6219325;23;20083;-87
2024/02/17 03:40:59;;;;;;;13.45;8.95;;;;;;;14.42;60.55;95766.69;6169853;23;20008;-86
2024/02/17 03:43:25;;;;;;;13.55;9.20;;;;;;;14.51;60.33;95775.22;6219022;23;20042;-87
2024/02/17 03:48:16;;;;;;;16.13;10.52;;;;;;;14.34;60.86;95761.59;6213083;23;20032;-87
2024/02/17 03:50:43;;;;;;;13.73;10.70;;;;;;;14.47;60.97;95782.66;6163731;23;20008;-86
2024/02/17 03:53:09;;;;;;;11.85;9.00;;;;;;;14.33;61.26;95779.09;6188600;23;20091;-87
2024/02/17 03:58:02;;;;;;;14.83;11.03;;;;;;;14.27;61.43;95793.72;6228672;22;20055;-87
2024/02/17 04:00:27;;;;;;;15.70;11.13;;;;;;;14.32;61.14;95781.88;6219280;23;20259;-86
2024/02/17 04:02:53;;;;;;;13.35;10.35;;;;;;;14.32;61.17;95785.34;6218814;23;20012;-86
2024/02/17 04:05:18;;;;;;;16.15;10.38;;;;;;;14.30;60.74;95776.88;6168985;23;20008;-87
2024/02/17 04:07:44;;;;;;;12.00;10.00;;;;;;;14.31;60.64;95788.94;6168599;23;20047;-87
2024/02/17 04:10:09;;;;;;;16.88;10.80;;;;;;;14.33;61.03;95802.66;6193496;23;20066;-86
2024/02/17 04:12:40;;;;;;;14.32;10.60;;;;;;;14.41;60.82;95802.53;6182686;23;20070;-87
2024/02/17 04:15:06;;;;;;;14.55;11.25;;;;;;;14.46;60.62;95808.00;6179070;23;20008;-87
2024/02/17 04:17:31;;;;;;;15.10;10.20;;;;;;;14.25;60.81;95790.50;6183341;23;20009;-86
2024/02/17 04:20:00;;;;;;;18.05;11.68;;;;;;;14.40;60.51;95805.34;6207933;23;20017;-86
2024/02/17 04:22:25;;;;;;;18.70;12.25;;;;;;;14.39;60.75;95819.41;6208358;23;20004;-87
2024/02/17 04:24:53;;;;;;;13.65;11.18;;;;;;;14.30;61.06;95807.44;6187671;23;20013;-87
2024/02/17 04:27:19;;;;;;;16.67;12.32;;;;;;;14.29;60.88;95817.09;6213279;23;20009;-88
2024/02/17 04:32:47;;;;;;;19.48;12.52;;;;;;;14.25;61.22;95821.88;6242994;23;20019;-87
2024/02/17 04:35:12;;;;;;;17.70;11.35;;;;;;;14.21;61.31;95835.53;6194103;23;20024;-88
2024/02/17 04:37:38;;;;;;;17.85;12.18;;;;;;;14.11;61.40;95830.59;6193558;23;20004;-87
2024/02/17 04:40:03;;;;;;;16.65;11.88;;;;;;;14.22;61.18;95837.16;6193848;23;20020;-87
2024/02/17 04:42:29;;;;;;;17.85;12.90;;;;;;;14.23;60.71;95836.97;6193955;23;20000;-88
2024/02/17 04:44:59;;;;;;;18.20;12.20;;;;;;;14.21;60.81;95849.41;6193947;23;20012;-88
2024/02/17 04:52:24;;;;;;;22.63;14.77;;;;;;;14.08;61.14;95851.88;6213933;23;20021;-87
2024/02/17 04:54:50;;;;;;;23.30;14.23;;;;;;;13.99;61.35;95853.81;6163726;23;20100;-87
2024/02/17 04:57:20;;;;;;;19.55;14.73;;;;;;;13.89;62.00;95868.97;6187720;23;20064;-87
2024/02/17 04:59:45;;;;;;;22.23;15.03;;;;;;;13.73;62.50;95856.06;6188438;23;20008;-86
2024/02/17 05:02:14;;;;;;;23.60;14.68;;;;;;;13.80;62.24;95865.66;6163267;23;20015;-87
2024/02/17 05:04:39;;;;;;;23.45;15.20;;;;;;;13.52;63.19;95875.91;6188214;23;20005;-87
2024/02/17 05:07:11;;;;;;;21.67;13.77;;;;;;;13.72;62.50;95862.31;6164101;23;20028;-87
2024/02/17 05:09:37;;;;;;;23.80;14.07;;;;;;;13.98;61.87;95870.50;6163876;23;20091;-87
2024/02/17 05:12:02;;;;;;;20.58;14.50;;;;;;;13.82;62.33;95878.50;6188349;23;20042;-87
2024/02/17 05:14:28;;;;;;;22.15;15.10;;;;;;;13.95;61.82;95878.69;6213186;23;20004;-87
2024/02/17 05:16:55;;;;;;;20.38;14.90;;;;;;;14.09;61.26;95884.91;6163198;23;20015;-87
2024/02/17 05:21:58;;;;;;;26.02;15.15;;;;;;;13.80;62.35;95876.09;6217251;23;20032;-87
2024/02/17 05:24:25;;;;;;;22.05;15.30;;;;;;;13.72;62.77;95880.59;6169263;23;20004;-86
2024/02/17 05:26:51;;;;;;;21.83;15.25;;;;;;;13.74;62.53;95883.84;6168655;23;20008;-87
2024/02/17 05:29:16;;;;;;;21.17;13.77;;;;;;;13.81;62.30;95874.28;6168216;23;20117;-86
2024/02/17 05:31:42;;;;;;;22.67;14.55;;;;;;;13.85;62.16;95880.78;6193168;23;20024;-86
2024/02/17 05:34:10;;;;;;;20.38;14.07;;;;;;;13.96;62.27;95898.63;6193125;23;20023;-86
2024/02/17 05:36:35;;;;;;;18.08;13.73;;;;;;;14.06;61.80;95898.34;6217557;23;20059;-86
2024/02/17 05:39:01;;;;;;;20.05;13.25;;;;;;;14.07;61.70;95899.97;6217407;23;20008;-86
2024/02/17 05:41:26;;;;;;;21.70;14.63;;;;;;;14.20;61.40;95899.31;6192733;23;20012;-87
2024/02/17 05:43:52;;;;;;;20.33;15.10;;;;;;;14.02;61.66;95886.63;6192888;23;20134;-86
2024/02/17 05:46:17;;;;;;;22.27;14.98;;;;;;;14.00;61.90;95883.38;6218065;23;20066;-87
2024/02/17 05:48:46;;;;;;;21.23;14.90;;;;;;;14.04;61.99;95898.53;6218308;23;20008;-86
2024/02/17 05:51:15;;;;;;;20.42;15.02;;;;;;;14.09;61.42;95879.69;6217983;23;20031;-86
2024/02/17 05:53:41;;;;;;;18.85;13.80;;;;;;;14.25;60.90;95889.13;6192827;23;20042;-86
2024/02/17 05:56:07;;;;;;;21.23;15.02;;;;;;;13.88;62.50;95898.72;6192895;23;20087;-86
2024/02/17 06:03:34;;;;;;;20.10;12.55;;;;;;;14.21;60.92;95895.72;6209420;23;20028;-87
2024/02/17 06:06:00;;;;;;;18.25;13.43;;;;;;;14.15;61.35;95896.44;6163302;23;20008;-87
2024/02/17 06:08:25;;;;;;;17.83;13.30;;;;;;;14.18;61.12;95903.91;6163889;23;20027;-87
2024/02/17 06:10:51;;;;;;;17.38;12.38;;;;;;;14.17;61.34;95912.78;6187502;23;20224;-88
2024/02/17 06:13:20;;;;;;;20.83;12.77;;;;;;;14.33;60.96;95909.13;6148480;23;20016;-88
2024/02/17 06:15:46;;;;;;;20.73;13.30;;;;;;;14.34;60.71;95900.28;6163070;23;20009;-86
2024/02/17 06:26:28;;;;;;;16.35;13.10;;;;;;;14.16;61.53;95914.56;6205291;23;20071;-88
2024/02/17 06:28:56;;;;;;;13.98;10.98;;;;;;;14.28;60.83;95920.16;6162600;23;20005;-87
2024/02/17 06:31:21;;;;;;;20.88;14.30;;;;;;;14.27;60.89;95921.13;6162884;23;20091;-87
2024/02/17 06:33:47;;;;;;;17.85;12.50;;;;;;;14.29;60.77;95934.84;6187127;23;20032;-86
2024/02/17 06:36:13;;;;;;;15.98;11.63;;;;;;;14.15;61.04;95925.22;6162245;23;20023;-87
2024/02/17 06:38:40;;;;;;;16.77;10.90;;;;;;;14.20;60.68;95920.25;6187033;23;20013;-87
2024/02/17 06:41:05;;;;;;;13.98;10.80;;;;;;;14.23;60.83;95935.59;6162300;23;20005;-87
2024/02/17 06:43:32;;;;;;;15.02;10.38;;;;;;;14.26;60.61;95933.41;6176366;23;20013;-86
2024/02/17 06:45:58;;;;;;;14.38;10.30;;;;;;;14.19;60.96;95939.56;6182180;23;20008;-87
2024/02/17 06:48:26;;;;;;;14.68;9.88;;;;;;;13.94;61.64;95929.38;6155633;23;20064;-87
2024/02/17 06:50:53;;;;;;;13.63;10.05;;;;;;;14.16;60.65;95940.72;6162202;23;20016;-87
2024/02/17 06:53:18;;;;;;;13.07;9.95;;;;;;;14.16;60.73;95934.69;6212239;23;20011;-87
2024/02/17 06:58:09;;;;;;;14.55;9.65;;;;;;;14.29;60.51;95950.53;6184733;23;20047;-87
2024/02/17 07:00:36;;;;;;;12.57;9.57;;;;;;;14.35;60.27;95957.66;6212054;23;20004;-87
2024/02/17 07:03:03;;;;;;;13.48;8.20;;;;;;;14.20;60.68;95949.84;6138281;23;20012;-87
2024/02/17 07:05:29;;;;;;;13.63;8.60;;;;;;;14.31;60.49;95956.41;6162555;23;20012;-88
2024/02/17 07:07:54;;;;;;;15.20;9.35;;;;;;;14.36;60.15;95950.66;6162069;23;20012;-87
2024/02/17 07:10:20;;;;;;;13.80;9.27;;;;;;;14.37;60.22;95949.63;6186207;23;20017;-87
2024/02/17 07:12:45;;;;;;;12.13;8.35;;;;;;;14.44;60.07;95961.81;6162090;23;20011;-87
2024/02/17 07:15:11;;;;;;;11.63;8.15;;;;;;;14.71;59.33;95962.13;6161968;23;20047;-88
2024/02/17 07:17:36;;;;;;;10.85;7.68;;;;;;;14.59;59.62;95971.47;6186353;23;20046;-87
2024/02/17 07:20:06;;;;;;;11.63;8.57;;;;;;;14.52;59.94;95968.75;6185761;23;20012;-87
2024/02/17 07:22:32;;;;;;;10.45;7.88;;;;;;;14.41;59.98;95956.94;6187136;23;20008;-87
2024/02/17 07:24:57;;;;;;;9.25;7.07;;;;;;;14.54;59.13;95955.47;6162214;23;20053;-87
2024/02/17 07:27:24;;;;;;;9.35;7.07;;;;;;;14.59;59.41;95964.44;6187215;23;20022;-87
2024/02/17 07:29:50;;;;;;;9.88;7.07;;;;;;;14.60;59.42;95973.09;6162515;23;20008;-87
2024/02/17 07:32:17;;;;;;;9.70;6.57;;;;;;;14.52;59.77;95976.59;6162172;23;20012;-87
2024/02/17 07:34:43;;;;;;;9.02;7.07;;;;;;;14.57;59.54;95974.28;6162363;23;20012;-87
2024/02/17 07:37:09;;;;;;;9.23;6.80;;;;;;;14.55;59.81;95967.56;6186675;23;20004;-87
2024/02/17 07:39:35;;;;;;;8.57;7.30;;;;;;;14.74;59.36;95987.16;6186055;23;19997;-88
2024/02/17 07:42:01;;;;;;;9.63;7.57;;;;;;;14.70;59.24;95971.00;6186626;23;20012;-87
2024/02/17 07:44:27;;;;;;;8.77;7.03;;;;;;;14.85;59.12;95991.91;6161895;23;20104;-87
2024/02/17 07:46:54;;;;;;;7.85;6.80;;;;;;;14.89;59.11;95993.16;6161913;23;20009;-87
2024/02/17 07:49:20;;;;;;;13.70;9.07;;;;;;;14.74;59.76;95993.19;6137021;23;20096;-87
2024/02/17 07:51:45;;;;;;;11.20;7.78;;;;;;;14.75;59.98;96000.03;6187064;23;20020;-88
2024/02/17 07:54:11;;;;;;;9.88;7.60;;;;;;;14.93;59.11;96004.09;6186807;23;20004;-87
2024/02/17 07:56:36;;;;;;;11.38;7.45;;;;;;;14.97;58.97;96000.91;6162170;23;20012;-87
2024/02/17 07:59:03;;;;;;;10.00;7.32;;;;;;;15.03;59.28;96005.41;6161550;23;20008;-88
2024/02/17 08:01:28;;;;;;;7.35;6.25;;;;;;;15.05;58.80;96005.22;6186508;23;20009;-87
2024/02/17 08:03:55;;;;;;;7.35;5.75;;;;;;;15.21;58.94;96015.47;6186385;23;20007;-87
2024/02/17 08:06:20;;;;;;;8.57;5.95;;;;;;;15.27;58.58;96013.06;6186509;23;20053;-87
2024/02/17 08:08:49;;;;;;;5.40;4.90;;;;;;;15.23;58.45;96013.47;6186258;23;20005;-87
2024/02/17 08:11:15;;;;;;;7.70;5.82;;;;;;;15.37;58.26;96030.13;6173825;23;20073;-86
2024/02/17 08:13:41;;;;;;;5.97;5.38;;;;;;;15.49;58.15;96027.81;6186651;23;20023;-88
2024/02/17 08:16:07;;;;;;;6.95;5.45;;;;;;;15.50;58.05;96024.19;6186538;23;20016;-87
2024/02/17 08:18:32;;;;;;;5.82;5.22;;;;;;;15.60;57.78;96027.28;6186251;23;20000;-87
2024/02/17 08:23:33;;;;;;;7.90;5.75;;;;;;;15.58;58.06;96038.97;6242796;22;20039;-87
2024/02/17 08:26:00;;;;;;;7.20;5.60;;;;;;;15.63;58.05;96041.84;6218842;23;20008;-86
2024/02/17 08:28:26;;;;;;;5.43;4.90;;;;;;;15.59;57.86;96036.19;6193747;23;20031;-87
2024/02/17 08:30:52;;;;;;;6.93;4.90;;;;;;;15.68;57.11;96033.41;6168753;23;20020;-88
2024/02/17 08:33:17;;;;;;;8.88;5.55;;;;;;;15.67;57.37;96050.97;6218606;23;20016;-87
2024/02/17 08:35:44;;;;;;;5.18;4.65;;;;;;;15.61;57.09;96041.22;6193666;23;20016;-86
2024/02/17 08:38:19;;;;;;;8.95;4.80;;;;;;;15.56;57.44;96049.66;6193776;23;20004;-87
2024/02/17 08:40:44;;;;;;;6.05;5.00;;;;;;;15.63;57.32;96055.78;6218342;23;20083;-87
2024/02/17 08:45:45;;;;;;;5.90;5.30;;;;;;;15.67;57.38;96050.13;6154284;23;20049;-87
2024/02/17 08:48:11;;;;;;;7.88;6.32;;;;;;;15.47;58.64;96049.97;6080384;23;20126;-87
2024/02/17 08:50:37;;;;;;;9.55;7.65;;;;;;;15.31;59.46;96059.72;6129067;23;20101;-87
2024/02/17 08:53:05;;;;;;;12.35;10.32;;;;;;;15.50;59.08;96050.41;6080473;23;20046;-87
2024/02/17 08:55:30;;;;;;;12.73;10.68;;;;;;;15.37;59.99;96076.50;6129421;23;20017;-87
2024/02/17 08:57:57;;;;;;;16.50;12.95;;;;;;;15.38;60.58;96073.69;6104438;23;20013;-88
2024/02/17 09:00:24;;;;;;;14.43;11.90;;;;;;;15.30;60.90;96080.84;6104437;23;20083;-87
2024/02/17 09:02:51;;;;;;;13.55;10.50;;;;;;;15.37;59.84;96068.63;6128776;23;20010;-86
2024/02/17 09:05:17;;;;;;;10.88;9.23;;;;;;;15.09;60.51;96060.69;6153436;23;20013;-87
2024/02/17 09:10:08;;;;;;;13.90;8.88;;;;;;;15.43;59.64;96067.88;6213766;23;20012;-87
2024/02/17 09:12:34;;;;;;;9.85;7.63;;;;;;;15.51;59.04;96074.81;6188249;23;20016;-87
2024/02/17 09:15:01;;;;;;;17.85;13.80;;;;;;;15.57;60.40;96090.63;6188087;23;20000;-87
2024/02/17 09:17:28;;;;;;;16.63;12.57;;;;;;;15.48;60.68;96088.28;6163239;23;20008;-87
2024/02/17 09:19:55;;;;;;;15.50;12.50;;;;;;;15.55;60.22;96083.91;6163728;23;20008;-87
2024/02/17 09:22:20;;;;;;;14.23;11.50;;;;;;;15.72;59.82;96079.25;6163493;23;20078;-86
2024/02/17 09:24:47;;;;;;;16.65;13.60;;;;;;;15.70;60.18;96091.72;6163201;23;20012;-88
2024/02/17 09:27:14;;;;;;;18.00;14.93;;;;;;;15.60;60.56;96084.19;6187644;23;20013;-87
2024/02/17 09:29:40;;;;;;;17.20;13.60;;;;;;;15.72;60.80;96108.09;6164198;23;20016;-87
2024/02/17 09:32:09;;;;;;;19.50;15.10;;;;;;;15.77;59.69;96097.88;6212968;23;20005;-87
2024/02/17 09:37:00;;;;;;;16.83;13.80;;;;;;;15.66;60.39;96117.53;6186799;23;20019;-87
2024/02/17 09:39:26;;;;;;;18.17;13.10;;;;;;;15.72;60.23;96110.72;6163317;23;20012;-88
2024/02/17 09:41:54;;;;;;;18.02;13.05;;;;;;;15.82;59.99;96114.69;6187977;23;20020;-87
2024/02/17 09:44:23;;;;;;;17.83;12.90;;;;;;;15.86;59.57;96112.50;6188276;23;20080;-86
2024/02/17 09:46:50;;;;;;;16.83;12.33;;;;;;;15.76;59.91;96112.00;6170163;23;20003;-87
2024/02/17 09:49:17;;;;;;;15.63;10.57;;;;;;;15.78;59.48;96120.47;6164716;23;20004;-87
2024/02/17 09:51:46;;;;;;;14.93;11.70;;;;;;;15.95;58.63;96119.22;6187552;23;20009;-87
2024/02/17 09:54:15;;;;;;;16.00;11.30;;;;;;;15.75;59.20;96120.88;6188140;23;20083;-88
2024/02/17 09:56:42;;;;;;;12.35;11.00;;;;;;;15.85;59.23;96116.09;6187807;23;20005;-88
2024/02/17 09:59:09;;;;;;;14.13;11.48;;;;;;;15.73;60.00;96139.41;6163202;23;20015;-87
2024/02/17 10:01:34;;;;;;;15.32;11.75;;;;;;;15.95;59.18;96140.19;6163148;23;20020;-86
2024/02/17 10:06:28;;;;;;;17.42;12.98;;;;;;;15.86;59.62;96154.47;6211228;23;20021;-88
2024/02/17 10:08:54;;;;;;;15.52;12.50;;;;;;;15.87;59.29;96145.59;6186661;23;20009;-87
2024/02/17 10:11:20;;;;;;;15.00;12.63;;;;;;;15.94;59.75;96159.59;6163315;23;20008;-86
2024/02/17 10:13:57;;;;;;;18.10;13.23;;;;;;;15.91;59.63;96167.81;6212341;23;20054;-87
2024/02/17 10:16:23;;;;;;;16.52;12.93;;;;;;;16.11;59.49;96169.84;6213053;23;20008;-87
2024/02/17 10:18:48;;;;;;;12.77;11.40;;;;;;;16.02;59.46;96174.38;6162199;23;20007;-87
2024/02/17 10:21:14;;;;;;;17.42;12.25;;;;;;;16.06;59.12;96175.63;6187383;23;20009;-88
2024/02/17 10:23:39;;;;;;;14.45;11.95;;;;;;;16.13;59.04;96176.50;6187491;23;20016;-87
2024/02/17 10:26:06;;;;;;;18.17;13.25;;;;;;;16.03;59.47;96189.16;6187298;23;20005;-88
2024/02/17 10:31:08;;;;;;;16.10;11.57;;;;;;;16.19;58.60;96191.50;6233560;22;20070;-88
2024/02/17 10:33:35;;;;;;;15.65;12.50;;;;;;;16.10;58.94;96197.88;6217519;23;20008;-87
2024/02/17 10:36:00;;;;;;;16.02;11.57;;;;;;;16.02;59.49;96195.38;6192934;23;20045;-87
2024/02/17 10:38:30;;;;;;;9.30;8.30;;;;;;;15.99;58.75;96201.00;6217196;23;20008;-87
2024/02/17 10:40:56;;;;;;;11.50;8.13;;;;;;;15.96;58.08;96196.94;6217552;23;20007;-88
2024/02/17 10:43:22;;;;;;;14.02;8.95;;;;;;;16.06;58.17;96199.25;6192197;23;20012;-88
2024/02/17 10:45:53;;;;;;;14.82;10.73;;;;;;;16.06;58.21;96201.88;6192109;23;20008;-87
2024/02/17 10:48:21;;;;;;;17.60;12.60;;;;;;;15.91;59.43;96196.69;6217233;23;20024;-87
2024/02/17 10:50:48;;;;;;;19.70;13.15;;;;;;;15.80;58.99;96184.06;6215707;23;20008;-87
2024/02/17 10:53:30;;;;;;;21.35;13.25;;;;;;;15.86;59.28;96201.69;6217564;23;20028;-88
2024/02/17 10:55:59;;;;;;;17.38;12.85;;;;;;;15.69;59.28;96189.75;6230124;22;20090;-87
2024/02/17 10:58:30;;;;;;;19.98;13.55;;;;;;;15.74;59.44;96203.97;6192118;23;20019;-88
2024/02/17 11:00:56;;;;;;;18.77;13.25;;;;;;;15.95;59.09;96203.19;6217448;23;20008;-87
2024/02/17 11:03:33;;;;;;;20.98;14.68;;;;;;;16.13;58.38;96208.00;6216999;23;20011;-86
2024/02/17 11:06:06;;;;;;;19.75;14.77;;;;;;;15.79;59.05;96195.56;6216945;23;20015;-85
2024/02/17 11:08:33;;;;;;;20.73;15.70;;;;;;;15.73;59.86;96204.16;6217296;23;20011;-88
2024/02/17 11:11:30;;;;;;;18.95;14.30;;;;;;;15.49;59.65;96192.97;6216851;23;20078;-87
2024/02/17 11:13:56;;;;;;;21.80;14.23;;;;;;;15.50;59.54;96212.13;6192383;23;20062;-88
2024/02/17 11:19:00;;;;;;;19.98;13.40;;;;;;;15.66;58.20;96203.25;6188119;23;20021;-87
2024/02/17 11:21:38;;;;;;;19.92;14.32;;;;;;;15.59;58.02;96206.63;6162434;23;20009;-87
2024/02/17 11:24:09;;;;;;;18.40;14.00;;;;;;;15.45;58.86;96215.31;6187104;23;20001;-86
2024/02/17 11:26:35;;;;;;;17.88;13.85;;;;;;;15.41;58.89;96212.25;6187229;23;20013;-87
2024/02/17 11:29:01;;;;;;;15.88;13.20;;;;;;;15.23;59.35;96215.25;6162448;23;20011;-88
2024/02/17 11:31:28;;;;;;;19.95;14.57;;;;;;;15.26;59.48;96208.84;6187880;23;20082;-87
2024/02/17 11:34:00;;;;;;;22.13;15.68;;;;;;;15.15;60.12;96211.91;6137949;23;20008;-86
2024/02/17 11:36:30;;;;;;;20.77;15.05;;;;;;;15.22;59.78;96208.38;6187038;23;20004;-86
2024/02/17 11:38:57;;;;;;;19.05;13.88;;;;;;;15.13;60.32;96209.47;6187069;23;20000;-87
2024/02/17 11:41:25;;;;;;;17.95;14.07;;;;;;;15.19;60.36;96226.28;6187089;23;20032;-86
2024/02/17 11:43:50;;;;;;;20.77;14.75;;;;;;;15.05;60.81;96214.81;6186409;23;20016;-87
2024/02/17 11:46:19;;;;;;;20.13;15.05;;;;;;;15.02;61.11;96220.41;6187106;23;20020;-86
2024/02/17 11:48:45;;;;;;;21.20;16.08;;;;;;;15.05;60.87;96215.63;6187025;23;20005;-87
2024/02/17 11:51:12;;;;;;;23.65;16.92;;;;;;;15.09;61.34;96220.50;6181707;23;20028;-85
2024/02/17 11:53:39;;;;;;;21.30;15.95;;;;;;;15.08;61.00;96219.69;6162352;23;20020;-85
2024/02/17 11:56:04;;;;;;;25.50;17.50;;;;;;;14.74;62.18;96217.59;6162065;23;20008;-86
2024/02/17 11:58:33;;;;;;;25.67;18.77;;;;;;;14.88;62.10;96221.22;6137090;23;20013;-87
2024/02/17 12:00:58;;;;;;;24.05;17.65;;;;;;;14.81;62.18;96214.09;6164708;23;20017;-87
2024/02/17 12:03:28;;;;;;;21.15;17.02;;;;;;;14.79;62.25;96215.25;6164192;23;20013;-87
2024/02/17 12:05:56;;;;;;;22.25;16.33;;;;;;;14.80;61.75;96212.44;6162925;23;20039;-87
2024/02/17 12:08:22;;;;;;;22.40;17.33;;;;;;;14.96;61.25;96215.88;6164613;23;20004;-87
2024/02/17 12:10:48;;;;;;;22.02;16.45;;;;;;;14.83;61.41;96221.75;6188522;23;20007;-87
2024/02/17 12:13:16;;;;;;;21.63;16.63;;;;;;;14.82;61.42;96223.56;6164012;23;20047;-86
2024/02/17 12:15:45;;;;;;;21.00;15.65;;;;;;;14.69;61.72;96233.84;6188338;23;20007;-87
2024/02/17 12:18:12;;;;;;;25.90;18.00;;;;;;;14.48;62.26;96232.66;6188515;23;20009;-87
2024/02/17 12:23:13;;;;;;;27.63;19.85;;;;;;;14.27;62.48;96225.47;6214119;23;20043;-86
2024/02/17 12:25:42;;;;;;;27.25;19.85;;;;;;;14.47;62.09;96244.16;6163654;23;20104;-87
2024/02/17 12:28:08;;;;;;;24.25;18.70;;;;;;;14.17;63.05;96245.03;6214151;23;20000;-86
2024/02/17 12:30:49;;;;;;;25.20;19.07;;;;;;;13.73;64.47;96248.22;6189852;23;20012;-88
2024/02/17 12:38:17;;;;;;;32.92;20.67;;;;;;;14.05;63.37;96229.75;6212610;23;20024;-87
2024/02/17 12:40:44;;;;;;;27.17;19.92;;;;;;;14.03;63.55;96229.09;6213584;23;20012;-86
2024/02/17 12:43:28;;;;;;;29.38;21.10;;;;;;;13.92;64.07;96239.13;6213459;23;20009;-88
2024/02/17 12:45:54;;;;;;;29.33;19.95;;;;;;;14.02;63.78;96232.69;6166035;23;20009;-88
2024/02/17 12:48:20;;;;;;;28.38;19.77;;;;;;;14.00;64.09;96231.25;6163604;23;20013;-87
2024/02/17 12:50:46;;;;;;;26.52;18.70;;;;;;;14.02;64.33;96245.78;6164615;23;20005;-87
2024/02/17 12:53:23;;;;;;;25.45;18.85;;;;;;;13.88;64.58;96231.66;6188141;23;20088;-87